sensor_id;sensor_type;location;lat;lon;timestamp;temperature;humidity
34279;DHT22;20538;51.528;9.942;2023-04-09T00:01:20;4.20;99.90
34279;DHT22;20538;51.528;9.942;2023-04-09T00:03:46;4.20;99.90
34279;DHT22;20538;51.528;9.942;2023-04-09T00:06:11;4.20;99.90
34279;DHT22;20538;51.528;9.942;2023-04-09T00:08:37;4.30;99.90
34279;DHT22;20538;51.528;9.942;2023-04-09T00:11:03;4.20;99.90
34279;DHT22;20538;51.528;9.942;2023-04-09T00:13:29;4.30;99.90
34279;DHT22;20538;51.528;9.942;2023-04-09T00:15:55;4.30;99.90
34279;DHT22;20538;51.528;9.942;2023-04-09T00:18:20;4.40;99.90
34279;DHT22;20538;51.528;9.942;2023-04-09T00:20:46;4.30;99.90
34279;DHT22;20538;51.528;9.942;2023-04-09T00:23:12;4.40;99.90
34279;DHT22;20538;51.528;9.942;2023-04-09T00:25:37;4.50;99.90
34279;DHT22;20538;51.528;9.942;2023-04-09T00:28:03;4.40;99.90
34279;DHT22;20538;51.528;9.942;2023-04-09T00:30:30;4.50;99.90
34279;DHT22;20538;51.528;9.942;2023-04-09T00:32:56;4.60;99.90
34279;DHT22;20538;51.528;9.942;2023-04-09T00:35:22;4.60;99.90
34279;DHT22;20538;51.528;9.942;2023-04-09T00:37:48;4.60;99.90
34279;DHT22;20538;51.528;9.942;2023-04-09T00:40:13;4.70;99.90
34279;DHT22;20538;51.528;9.942;2023-04-09T00:42:39;4.70;99.90
34279;DHT22;20538;51.528;9.942;2023-04-09T00:45:07;4.80;99.90
34279;DHT22;20538;51.528;9.942;2023-04-09T00:47:34;4.80;99.90
34279;DHT22;20538;51.528;9.942;2023-04-09T00:50:01;4.80;99.90
34279;DHT22;20538;51.528;9.942;2023-04-09T00:52:27;4.90;99.90
34279;DHT22;20538;51.528;9.942;2023-04-09T00:54:55;4.70;99.90
34279;DHT22;20538;51.528;9.942;2023-04-09T00:57:23;4.60;99.90
34279;DHT22;20538;51.528;9.942;2023-04-09T00:59:48;4.60;99.90
34279;DHT22;20538;51.528;9.942;2023-04-09T01:02:15;4.50;99.90
34279;DHT22;20538;51.528;9.942;2023-04-09T01:04:41;4.40;99.90
34279;DHT22;20538;51.528;9.942;2023-04-09T01:07:26;4.30;99.90
34279;DHT22;20538;51.528;9.942;2023-04-09T01:15:10;4.60;99.90
34279;DHT22;20538;51.528;9.942;2023-04-09T01:20:37;4.50;99.90
34279;DHT22;20538;51.528;9.942;2023-04-09T01:23:16;4.40;99.90
34279;DHT22;20538;51.528;9.942;2023-04-09T01:28:53;4.40;99.90
34279;DHT22;20538;51.528;9.942;2023-04-09T01:31:25;4.40;99.90
34279;DHT22;20538;51.528;9.942;2023-04-09T01:33:52;4.50;99.90
34279;DHT22;20538;51.528;9.942;2023-04-09T01:36:20;4.70;99.90
34279;DHT22;20538;51.528;9.942;2023-04-09T01:38:47;4.70;99.90
34279;DHT22;20538;51.528;9.942;2023-04-09T01:41:18;4.70;99.90
34279;DHT22;20538;51.528;9.942;2023-04-09T01:43:44;4.60;99.90
34279;DHT22;20538;51.528;9.942;2023-04-09T01:46:11;4.70;99.90
34279;DHT22;20538;51.528;9.942;2023-04-09T01:48:38;4.80;99.90
34279;DHT22;20538;51.528;9.942;2023-04-09T01:51:09;4.80;99.90
34279;DHT22;20538;51.528;9.942;2023-04-09T01:53:39;4.90;99.90
34279;DHT22;20538;51.528;9.942;2023-04-09T01:56:06;4.80;99.90
34279;DHT22;20538;51.528;9.942;2023-04-09T01:58:34;4.90;99.90
34279;DHT22;20538;51.528;9.942;2023-04-09T02:01:15;4.90;99.90
34279;DHT22;20538;51.528;9.942;2023-04-09T02:03:47;4.90;99.90
34279;DHT22;20538;51.528;9.942;2023-04-09T02:06:45;4.90;99.90
34279;DHT22;20538;51.528;9.942;2023-04-09T02:09:15;5.00;99.90
34279;DHT22;20538;51.528;9.942;2023-04-09T02:11:43;5.00;99.90
34279;DHT22;20538;51.528;9.942;2023-04-09T02:14:11;5.00;99.90
34279;DHT22;20538;51.528;9.942;2023-04-09T02:16:39;5.10;99.90
34279;DHT22;20538;51.528;9.942;2023-04-09T02:19:05;5.00;99.90
34279;DHT22;20538;51.528;9.942;2023-04-09T02:21:31;4.90;99.90
34279;DHT22;20538;51.528;9.942;2023-04-09T02:23:57;5.00;99.90
34279;DHT22;20538;51.528;9.942;2023-04-09T02:26:23;5.00;99.90
34279;DHT22;20538;51.528;9.942;2023-04-09T02:28:49;5.00;99.90
34279;DHT22;20538;51.528;9.942;2023-04-09T02:31:15;5.00;99.90
34279;DHT22;20538;51.528;9.942;2023-04-09T02:33:41;5.00;99.90
34279;DHT22;20538;51.528;9.942;2023-04-09T02:36:10;5.00;99.90
34279;DHT22;20538;51.528;9.942;2023-04-09T02:38:42;5.00;99.90
34279;DHT22;20538;51.528;9.942;2023-04-09T02:41:08;5.00;99.90
34279;DHT22;20538;51.528;9.942;2023-04-09T02:43:34;5.00;99.90
34279;DHT22;20538;51.528;9.942;2023-04-09T02:45:59;4.90;99.90
34279;DHT22;20538;51.528;9.942;2023-04-09T02:48:25;4.90;99.90
34279;DHT22;20538;51.528;9.942;2023-04-09T02:50:51;4.80;99.90
34279;DHT22;20538;51.528;9.942;2023-04-09T02:53:16;4.70;99.90
34279;DHT22;20538;51.528;9.942;2023-04-09T02:55:42;4.70;99.90
34279;DHT22;20538;51.528;9.942;2023-04-09T02:58:08;4.70;99.90
34279;DHT22;20538;51.528;9.942;2023-04-09T03:00:33;4.70;99.90
34279;DHT22;20538;51.528;9.942;2023-04-09T03:02:59;4.70;99.90
34279;DHT22;20538;51.528;9.942;2023-04-09T03:05:25;4.70;99.90
34279;DHT22;20538;51.528;9.942;2023-04-09T03:07:51;4.80;99.90
34279;DHT22;20538;51.528;9.942;2023-04-09T03:10:16;4.90;99.90
34279;DHT22;20538;51.528;9.942;2023-04-09T03:12:42;4.90;99.90
34279;DHT22;20538;51.528;9.942;2023-04-09T03:15:09;4.90;99.90
34279;DHT22;20538;51.528;9.942;2023-04-09T03:17:35;4.90;99.90
34279;DHT22;20538;51.528;9.942;2023-04-09T03:20:01;4.90;99.90
34279;DHT22;20538;51.528;9.942;2023-04-09T03:22:27;4.90;99.90
34279;DHT22;20538;51.528;9.942;2023-04-09T03:24:52;4.90;99.90
34279;DHT22;20538;51.528;9.942;2023-04-09T03:27:18;4.90;99.90
34279;DHT22;20538;51.528;9.942;2023-04-09T03:29:43;5.00;99.90
34279;DHT22;20538;51.528;9.942;2023-04-09T03:32:09;5.00;99.90
34279;DHT22;20538;51.528;9.942;2023-04-09T03:34:35;5.00;99.90
34279;DHT22;20538;51.528;9.942;2023-04-09T03:37:00;5.00;99.90
34279;DHT22;20538;51.528;9.942;2023-04-09T03:39:26;5.00;99.90
34279;DHT22;20538;51.528;9.942;2023-04-09T03:41:55;5.00;99.90
34279;DHT22;20538;51.528;9.942;2023-04-09T03:44:22;5.00;99.90
34279;DHT22;20538;51.528;9.942;2023-04-09T03:46:48;5.00;99.90
34279;DHT22;20538;51.528;9.942;2023-04-09T03:49:14;5.10;99.90
34279;DHT22;20538;51.528;9.942;2023-04-09T03:51:39;5.00;99.90
34279;DHT22;20538;51.528;9.942;2023-04-09T03:54:05;4.90;99.90
34279;DHT22;20538;51.528;9.942;2023-04-09T03:56:31;4.90;99.90
34279;DHT22;20538;51.528;9.942;2023-04-09T03:58:56;4.90;99.90
34279;DHT22;20538;51.528;9.942;2023-04-09T04:01:22;4.90;99.90
34279;DHT22;20538;51.528;9.942;2023-04-09T04:03:47;4.90;99.90
34279;DHT22;20538;51.528;9.942;2023-04-09T04:06:13;4.90;99.90
34279;DHT22;20538;51.528;9.942;2023-04-09T04:08:39;5.00;99.90
34279;DHT22;20538;51.528;9.942;2023-04-09T04:11:04;5.00;99.90
34279;DHT22;20538;51.528;9.942;2023-04-09T04:13:30;5.00;99.90
34279;DHT22;20538;51.528;9.942;2023-04-09T04:15:56;5.10;99.90
34279;DHT22;20538;51.528;9.942;2023-04-09T04:18:22;5.10;99.90
34279;DHT22;20538;51.528;9.942;2023-04-09T04:20:47;5.00;99.90
34279;DHT22;20538;51.528;9.942;2023-04-09T04:23:13;4.90;99.90
34279;DHT22;20538;51.528;9.942;2023-04-09T04:25:42;5.00;99.90
34279;DHT22;20538;51.528;9.942;2023-04-09T04:28:07;5.00;99.90
34279;DHT22;20538;51.528;9.942;2023-04-09T04:30:33;5.00;99.90
34279;DHT22;20538;51.528;9.942;2023-04-09T04:32:59;5.00;99.90
34279;DHT22;20538;51.528;9.942;2023-04-09T04:35:25;5.10;99.90
34279;DHT22;20538;51.528;9.942;2023-04-09T04:37:51;5.00;99.90
34279;DHT22;20538;51.528;9.942;2023-04-09T04:40:16;5.00;99.90
34279;DHT22;20538;51.528;9.942;2023-04-09T04:42:42;5.00;99.90
34279;DHT22;20538;51.528;9.942;2023-04-09T04:45:08;5.00;99.90
34279;DHT22;20538;51.528;9.942;2023-04-09T04:47:34;5.00;99.90
34279;DHT22;20538;51.528;9.942;2023-04-09T04:50:00;4.90;99.90
34279;DHT22;20538;51.528;9.942;2023-04-09T04:52:26;4.90;99.90
34279;DHT22;20538;51.528;9.942;2023-04-09T04:54:51;4.90;99.90
34279;DHT22;20538;51.528;9.942;2023-04-09T04:57:18;4.90;99.90
34279;DHT22;20538;51.528;9.942;2023-04-09T04:59:44;4.90;99.90
34279;DHT22;20538;51.528;9.942;2023-04-09T05:02:11;4.90;99.90
34279;DHT22;20538;51.528;9.942;2023-04-09T05:04:37;4.90;99.90
34279;DHT22;20538;51.528;9.942;2023-04-09T05:07:03;5.00;99.90
34279;DHT22;20538;51.528;9.942;2023-04-09T05:09:28;5.00;99.90
34279;DHT22;20538;51.528;9.942;2023-04-09T05:11:54;5.00;99.90
34279;DHT22;20538;51.528;9.942;2023-04-09T05:14:21;5.00;99.90
34279;DHT22;20538;51.528;9.942;2023-04-09T05:16:48;5.10;99.90
34279;DHT22;20538;51.528;9.942;2023-04-09T05:19:14;5.10;99.90
34279;DHT22;20538;51.528;9.942;2023-04-09T05:21:40;5.10;99.90
34279;DHT22;20538;51.528;9.942;2023-04-09T05:24:05;5.10;99.90
34279;DHT22;20538;51.528;9.942;2023-04-09T05:26:31;5.20;99.90
34279;DHT22;20538;51.528;9.942;2023-04-09T05:28:57;5.00;99.90
34279;DHT22;20538;51.528;9.942;2023-04-09T05:31:22;5.10;99.90
34279;DHT22;20538;51.528;9.942;2023-04-09T05:33:48;5.10;99.90
34279;DHT22;20538;51.528;9.942;2023-04-09T05:36:17;5.20;99.90
34279;DHT22;20538;51.528;9.942;2023-04-09T05:38:47;5.30;99.90
34279;DHT22;20538;51.528;9.942;2023-04-09T05:41:13;5.40;99.90
34279;DHT22;20538;51.528;9.942;2023-04-09T05:43:38;5.40;99.90
34279;DHT22;20538;51.528;9.942;2023-04-09T05:46:05;5.50;99.90
34279;DHT22;20538;51.528;9.942;2023-04-09T05:48:33;5.50;99.90
34279;DHT22;20538;51.528;9.942;2023-04-09T05:50:59;5.60;99.90
34279;DHT22;20538;51.528;9.942;2023-04-09T05:53:25;5.50;99.90
34279;DHT22;20538;51.528;9.942;2023-04-09T05:55:50;5.40;99.90
34279;DHT22;20538;51.528;9.942;2023-04-09T05:58:16;5.50;99.90
34279;DHT22;20538;51.528;9.942;2023-04-09T06:00:46;5.60;99.90
34279;DHT22;20538;51.528;9.942;2023-04-09T06:03:11;5.50;99.90
34279;DHT22;20538;51.528;9.942;2023-04-09T06:05:37;5.50;99.90
34279;DHT22;20538;51.528;9.942;2023-04-09T06:08:03;5.60;99.90
34279;DHT22;20538;51.528;9.942;2023-04-09T06:10:31;5.50;99.90
34279;DHT22;20538;51.528;9.942;2023-04-09T06:12:57;5.50;99.90
34279;DHT22;20538;51.528;9.942;2023-04-09T06:15:22;5.70;99.90
34279;DHT22;20538;51.528;9.942;2023-04-09T06:17:48;5.90;99.90
34279;DHT22;20538;51.528;9.942;2023-04-09T06:20:14;5.90;99.90
34279;DHT22;20538;51.528;9.942;2023-04-09T06:22:39;6.10;99.90
34279;DHT22;20538;51.528;9.942;2023-04-09T06:25:08;5.70;99.90
34279;DHT22;20538;51.528;9.942;2023-04-09T06:27:34;5.80;99.90
34279;DHT22;20538;51.528;9.942;2023-04-09T06:30:00;5.90;99.90
34279;DHT22;20538;51.528;9.942;2023-04-09T06:32:26;5.90;99.90
34279;DHT22;20538;51.528;9.942;2023-04-09T06:34:51;6.00;99.90
34279;DHT22;20538;51.528;9.942;2023-04-09T06:37:17;6.20;99.90
34279;DHT22;20538;51.528;9.942;2023-04-09T06:39:42;6.20;99.90
34279;DHT22;20538;51.528;9.942;2023-04-09T06:42:08;6.40;99.90
34279;DHT22;20538;51.528;9.942;2023-04-09T06:44:34;6.60;99.90
34279;DHT22;20538;51.528;9.942;2023-04-09T06:47:00;6.80;99.90
34279;DHT22;20538;51.528;9.942;2023-04-09T06:49:26;6.70;99.90
34279;DHT22;20538;51.528;9.942;2023-04-09T06:51:52;6.40;99.90
34279;DHT22;20538;51.528;9.942;2023-04-09T06:54:19;6.60;99.90
34279;DHT22;20538;51.528;9.942;2023-04-09T06:56:44;6.90;99.90
34279;DHT22;20538;51.528;9.942;2023-04-09T06:59:10;6.90;99.90
34279;DHT22;20538;51.528;9.942;2023-04-09T07:01:37;7.10;99.90
34279;DHT22;20538;51.528;9.942;2023-04-09T07:04:03;7.30;99.90
34279;DHT22;20538;51.528;9.942;2023-04-09T07:06:28;7.40;99.90
34279;DHT22;20538;51.528;9.942;2023-04-09T07:08:54;7.30;99.90
34279;DHT22;20538;51.528;9.942;2023-04-09T07:11:20;7.50;99.90
34279;DHT22;20538;51.528;9.942;2023-04-09T07:13:46;7.20;99.90
34279;DHT22;20538;51.528;9.942;2023-04-09T07:16:11;7.10;99.90
34279;DHT22;20538;51.528;9.942;2023-04-09T07:18:37;6.90;99.90
34279;DHT22;20538;51.528;9.942;2023-04-09T07:21:03;7.00;99.90
34279;DHT22;20538;51.528;9.942;2023-04-09T07:23:28;7.30;99.90
34279;DHT22;20538;51.528;9.942;2023-04-09T07:25:54;7.40;99.90
34279;DHT22;20538;51.528;9.942;2023-04-09T07:28:20;7.60;99.90
34279;DHT22;20538;51.528;9.942;2023-04-09T07:30:46;7.90;99.90
34279;DHT22;20538;51.528;9.942;2023-04-09T07:33:11;7.50;99.90
34279;DHT22;20538;51.528;9.942;2023-04-09T07:35:37;7.70;99.90
34279;DHT22;20538;51.528;9.942;2023-04-09T07:38:03;8.00;99.90
34279;DHT22;20538;51.528;9.942;2023-04-09T07:40:28;8.10;99.90
34279;DHT22;20538;51.528;9.942;2023-04-09T07:42:54;8.30;99.90
34279;DHT22;20538;51.528;9.942;2023-04-09T07:45:20;8.10;99.90
34279;DHT22;20538;51.528;9.942;2023-04-09T07:47:46;7.90;99.90
34279;DHT22;20538;51.528;9.942;2023-04-09T07:50:12;8.00;99.90
34279;DHT22;20538;51.528;9.942;2023-04-09T07:52:37;7.90;99.90
34279;DHT22;20538;51.528;9.942;2023-04-09T07:55:03;8.10;99.90
34279;DHT22;20538;51.528;9.942;2023-04-09T07:57:32;8.60;99.90
34279;DHT22;20538;51.528;9.942;2023-04-09T07:59:58;8.30;99.90
34279;DHT22;20538;51.528;9.942;2023-04-09T08:02:24;8.50;99.90
34279;DHT22;20538;51.528;9.942;2023-04-09T08:04:49;8.80;99.90
34279;DHT22;20538;51.528;9.942;2023-04-09T08:07:15;8.90;99.90
34279;DHT22;20538;51.528;9.942;2023-04-09T08:09:41;8.40;99.90
34279;DHT22;20538;51.528;9.942;2023-04-09T08:12:07;8.00;99.90
34279;DHT22;20538;51.528;9.942;2023-04-09T08:14:32;8.30;99.90
34279;DHT22;20538;51.528;9.942;2023-04-09T08:16:58;8.30;99.90
34279;DHT22;20538;51.528;9.942;2023-04-09T08:19:24;8.70;99.90
34279;DHT22;20538;51.528;9.942;2023-04-09T08:21:50;8.20;99.90
34279;DHT22;20538;51.528;9.942;2023-04-09T08:24:16;8.30;99.90
34279;DHT22;20538;51.528;9.942;2023-04-09T08:26:42;8.30;99.90
34279;DHT22;20538;51.528;9.942;2023-04-09T08:29:09;8.50;99.90
34279;DHT22;20538;51.528;9.942;2023-04-09T08:31:36;8.90;99.90
34279;DHT22;20538;51.528;9.942;2023-04-09T08:34:01;9.00;99.90
34279;DHT22;20538;51.528;9.942;2023-04-09T08:36:27;8.40;99.90
34279;DHT22;20538;51.528;9.942;2023-04-09T08:38:53;8.90;99.90
34279;DHT22;20538;51.528;9.942;2023-04-09T08:41:22;9.10;99.90
34279;DHT22;20538;51.528;9.942;2023-04-09T08:43:50;9.10;99.90
34279;DHT22;20538;51.528;9.942;2023-04-09T08:46:18;8.20;99.90
34279;DHT22;20538;51.528;9.942;2023-04-09T08:48:45;8.10;99.90
34279;DHT22;20538;51.528;9.942;2023-04-09T08:51:22;8.10;99.90
34279;DHT22;20538;51.528;9.942;2023-04-09T08:53:57;8.10;99.90
34279;DHT22;20538;51.528;9.942;2023-04-09T08:56:23;8.80;99.90
34279;DHT22;20538;51.528;9.942;2023-04-09T08:58:49;8.70;99.90
34279;DHT22;20538;51.528;9.942;2023-04-09T09:01:25;8.40;99.90
34279;DHT22;20538;51.528;9.942;2023-04-09T09:04:03;8.00;99.90
34279;DHT22;20538;51.528;9.942;2023-04-09T09:06:34;8.40;99.90
34279;DHT22;20538;51.528;9.942;2023-04-09T09:09:09;8.20;99.90
34279;DHT22;20538;51.528;9.942;2023-04-09T09:11:39;8.50;99.90
34279;DHT22;20538;51.528;9.942;2023-04-09T09:14:12;8.60;99.90
34279;DHT22;20538;51.528;9.942;2023-04-09T09:16:40;8.60;99.90
34279;DHT22;20538;51.528;9.942;2023-04-09T09:22:00;8.70;99.90
34279;DHT22;20538;51.528;9.942;2023-04-09T09:24:26;8.30;99.90
34279;DHT22;20538;51.528;9.942;2023-04-09T09:26:52;8.80;99.90
34279;DHT22;20538;51.528;9.942;2023-04-09T09:29:24;8.80;99.90
34279;DHT22;20538;51.528;9.942;2023-04-09T09:31:52;8.60;99.90
34279;DHT22;20538;51.528;9.942;2023-04-09T09:34:20;8.60;99.90
34279;DHT22;20538;51.528;9.942;2023-04-09T09:36:46;8.70;99.90
34279;DHT22;20538;51.528;9.942;2023-04-09T09:39:13;8.90;99.90
34279;DHT22;20538;51.528;9.942;2023-04-09T09:41:42;8.80;99.90
34279;DHT22;20538;51.528;9.942;2023-04-09T09:44:09;8.80;99.90
34279;DHT22;20538;51.528;9.942;2023-04-09T09:46:37;8.80;99.90
34279;DHT22;20538;51.528;9.942;2023-04-09T09:49:04;8.80;99.90
34279;DHT22;20538;51.528;9.942;2023-04-09T09:51:32;8.90;99.90
34279;DHT22;20538;51.528;9.942;2023-04-09T09:53:58;9.80;99.90
34279;DHT22;20538;51.528;9.942;2023-04-09T09:56:31;9.80;99.90
34279;DHT22;20538;51.528;9.942;2023-04-09T10:01:25;10.50;99.90
34279;DHT22;20538;51.528;9.942;2023-04-09T10:03:52;9.50;99.90
34279;DHT22;20538;51.528;9.942;2023-04-09T10:06:21;9.80;99.90
34279;DHT22;20538;51.528;9.942;2023-04-09T10:08:48;9.90;99.90
34279;DHT22;20538;51.528;9.942;2023-04-09T10:11:16;10.20;99.90
34279;DHT22;20538;51.528;9.942;2023-04-09T10:13:49;10.10;99.90
34279;DHT22;20538;51.528;9.942;2023-04-09T10:16:16;10.30;99.90
34279;DHT22;20538;51.528;9.942;2023-04-09T10:18:42;10.80;99.90
34279;DHT22;20538;51.528;9.942;2023-04-09T10:24:03;10.20;99.90
34279;DHT22;20538;51.528;9.942;2023-04-09T10:26:32;10.20;99.90
34279;DHT22;20538;51.528;9.942;2023-04-09T10:29:04;10.10;99.90
34279;DHT22;20538;51.528;9.942;2023-04-09T10:34:19;10.80;99.90
34279;DHT22;20538;51.528;9.942;2023-04-09T10:36:51;10.90;99.90
34279;DHT22;20538;51.528;9.942;2023-04-09T10:39:18;11.20;99.90
34279;DHT22;20538;51.528;9.942;2023-04-09T10:41:44;11.20;99.90
34279;DHT22;20538;51.528;9.942;2023-04-09T10:44:31;11.00;99.90
34279;DHT22;20538;51.528;9.942;2023-04-09T10:47:02;11.00;99.90
34279;DHT22;20538;51.528;9.942;2023-04-09T10:49:38;11.30;99.90
34279;DHT22;20538;51.528;9.942;2023-04-09T10:52:07;11.50;99.90
34279;DHT22;20538;51.528;9.942;2023-04-09T10:59:37;13.20;99.90
34279;DHT22;20538;51.528;9.942;2023-04-09T11:02:16;12.80;99.90
34279;DHT22;20538;51.528;9.942;2023-04-09T11:07:44;12.90;99.90
34279;DHT22;20538;51.528;9.942;2023-04-09T11:10:11;12.80;99.90
34279;DHT22;20538;51.528;9.942;2023-04-09T11:12:37;13.10;99.90
34279;DHT22;20538;51.528;9.942;2023-04-09T11:15:03;13.30;99.90
34279;DHT22;20538;51.528;9.942;2023-04-09T11:17:29;13.10;99.90
34279;DHT22;20538;51.528;9.942;2023-04-09T11:19:55;12.90;99.90
34279;DHT22;20538;51.528;9.942;2023-04-09T11:22:21;13.10;99.90
34279;DHT22;20538;51.528;9.942;2023-04-09T11:24:46;13.10;99.90
34279;DHT22;20538;51.528;9.942;2023-04-09T11:27:12;13.30;99.90
34279;DHT22;20538;51.528;9.942;2023-04-09T11:29:38;13.50;99.90
34279;DHT22;20538;51.528;9.942;2023-04-09T11:32:04;13.30;99.90
34279;DHT22;20538;51.528;9.942;2023-04-09T11:34:31;13.50;99.90
34279;DHT22;20538;51.528;9.942;2023-04-09T11:36:57;13.40;99.90
34279;DHT22;20538;51.528;9.942;2023-04-09T11:39:24;13.30;99.90
34279;DHT22;20538;51.528;9.942;2023-04-09T11:41:51;13.30;99.90
34279;DHT22;20538;51.528;9.942;2023-04-09T11:44:16;13.30;99.90
34279;DHT22;20538;51.528;9.942;2023-04-09T11:46:42;13.10;99.90
34279;DHT22;20538;51.528;9.942;2023-04-09T11:49:08;13.00;99.90
34279;DHT22;20538;51.528;9.942;2023-04-09T11:51:34;13.00;99.90
34279;DHT22;20538;51.528;9.942;2023-04-09T11:54:01;12.90;99.90
34279;DHT22;20538;51.528;9.942;2023-04-09T11:56:30;13.30;99.90
34279;DHT22;20538;51.528;9.942;2023-04-09T11:58:57;13.50;99.90
34279;DHT22;20538;51.528;9.942;2023-04-09T12:01:23;13.40;99.90
34279;DHT22;20538;51.528;9.942;2023-04-09T12:03:53;13.50;99.90
34279;DHT22;20538;51.528;9.942;2023-04-09T12:06:22;13.90;99.90
34279;DHT22;20538;51.528;9.942;2023-04-09T12:08:56;14.00;99.90
34279;DHT22;20538;51.528;9.942;2023-04-09T12:11:29;13.50;99.90
34279;DHT22;20538;51.528;9.942;2023-04-09T12:14:03;13.50;99.90
34279;DHT22;20538;51.528;9.942;2023-04-09T12:16:33;13.90;99.90
34279;DHT22;20538;51.528;9.942;2023-04-09T12:19:10;13.80;99.90
34279;DHT22;20538;51.528;9.942;2023-04-09T12:21:53;14.00;99.90
34279;DHT22;20538;51.528;9.942;2023-04-09T12:24:22;14.30;99.90
34279;DHT22;20538;51.528;9.942;2023-04-09T12:26:50;14.50;99.90
34279;DHT22;20538;51.528;9.942;2023-04-09T12:29:17;14.30;99.90
34279;DHT22;20538;51.528;9.942;2023-04-09T12:31:44;14.00;99.90
34279;DHT22;20538;51.528;9.942;2023-04-09T12:34:10;13.70;99.90
34279;DHT22;20538;51.528;9.942;2023-04-09T12:36:38;13.60;99.90
34279;DHT22;20538;51.528;9.942;2023-04-09T12:39:04;13.60;99.90
34279;DHT22;20538;51.528;9.942;2023-04-09T12:41:30;13.90;99.90
34279;DHT22;20538;51.528;9.942;2023-04-09T12:43:56;13.90;99.90
34279;DHT22;20538;51.528;9.942;2023-04-09T12:46:21;13.60;99.90
34279;DHT22;20538;51.528;9.942;2023-04-09T12:48:47;13.70;99.90
34279;DHT22;20538;51.528;9.942;2023-04-09T12:51:13;13.70;99.90
34279;DHT22;20538;51.528;9.942;2023-04-09T12:53:39;13.80;99.90
34279;DHT22;20538;51.528;9.942;2023-04-09T12:56:06;13.90;99.90
34279;DHT22;20538;51.528;9.942;2023-04-09T12:58:32;14.20;99.90
34279;DHT22;20538;51.528;9.942;2023-04-09T13:00:58;14.20;99.90
34279;DHT22;20538;51.528;9.942;2023-04-09T13:03:24;14.00;99.90
34279;DHT22;20538;51.528;9.942;2023-04-09T13:05:50;14.00;99.90
34279;DHT22;20538;51.528;9.942;2023-04-09T13:08:16;14.00;99.90
34279;DHT22;20538;51.528;9.942;2023-04-09T13:10:42;13.80;99.90
34279;DHT22;20538;51.528;9.942;2023-04-09T13:13:08;13.90;99.90
34279;DHT22;20538;51.528;9.942;2023-04-09T13:15:41;13.80;99.90
34279;DHT22;20538;51.528;9.942;2023-04-09T13:18:12;13.90;99.90
34279;DHT22;20538;51.528;9.942;2023-04-09T13:20:38;14.10;99.90
34279;DHT22;20538;51.528;9.942;2023-04-09T13:23:04;14.00;99.90
34279;DHT22;20538;51.528;9.942;2023-04-09T13:25:30;14.20;99.90
34279;DHT22;20538;51.528;9.942;2023-04-09T13:27:56;14.50;99.90
34279;DHT22;20538;51.528;9.942;2023-04-09T13:30:25;14.60;99.90
34279;DHT22;20538;51.528;9.942;2023-04-09T13:32:51;14.70;99.90
34279;DHT22;20538;51.528;9.942;2023-04-09T13:35:16;14.60;99.90
34279;DHT22;20538;51.528;9.942;2023-04-09T13:37:43;14.80;99.90
34279;DHT22;20538;51.528;9.942;2023-04-09T13:40:09;14.70;99.90
34279;DHT22;20538;51.528;9.942;2023-04-09T13:42:35;14.90;99.90
34279;DHT22;20538;51.528;9.942;2023-04-09T13:45:02;14.60;99.90
34279;DHT22;20538;51.528;9.942;2023-04-09T13:47:28;14.90;99.90
34279;DHT22;20538;51.528;9.942;2023-04-09T13:49:53;14.80;99.90
34279;DHT22;20538;51.528;9.942;2023-04-09T13:52:20;14.70;99.90
34279;DHT22;20538;51.528;9.942;2023-04-09T13:54:49;14.90;99.90
34279;DHT22;20538;51.528;9.942;2023-04-09T13:57:18;15.00;99.90
34279;DHT22;20538;51.528;9.942;2023-04-09T13:59:44;15.00;99.90
34279;DHT22;20538;51.528;9.942;2023-04-09T14:02:10;14.90;99.90
34279;DHT22;20538;51.528;9.942;2023-04-09T14:04:36;15.10;99.90
34279;DHT22;20538;51.528;9.942;2023-04-09T14:07:02;15.20;99.90
34279;DHT22;20538;51.528;9.942;2023-04-09T14:09:28;15.30;99.90
34279;DHT22;20538;51.528;9.942;2023-04-09T14:11:56;15.50;99.90
34279;DHT22;20538;51.528;9.942;2023-04-09T14:14:21;15.60;99.90
34279;DHT22;20538;51.528;9.942;2023-04-09T14:16:48;15.70;99.90
34279;DHT22;20538;51.528;9.942;2023-04-09T14:19:23;15.60;99.90
34279;DHT22;20538;51.528;9.942;2023-04-09T14:21:49;15.50;99.90
34279;DHT22;20538;51.528;9.942;2023-04-09T14:24:55;15.50;99.90
34279;DHT22;20538;51.528;9.942;2023-04-09T14:27:24;15.60;99.90
34279;DHT22;20538;51.528;9.942;2023-04-09T14:29:51;15.80;99.90
34279;DHT22;20538;51.528;9.942;2023-04-09T14:32:22;15.60;99.90
34279;DHT22;20538;51.528;9.942;2023-04-09T14:34:48;15.50;99.90
34279;DHT22;20538;51.528;9.942;2023-04-09T14:37:32;15.60;99.90
34279;DHT22;20538;51.528;9.942;2023-04-09T14:39:58;15.70;99.90
34279;DHT22;20538;51.528;9.942;2023-04-09T14:42:24;15.70;99.90
34279;DHT22;20538;51.528;9.942;2023-04-09T14:44:53;15.70;99.90
34279;DHT22;20538;51.528;9.942;2023-04-09T14:47:21;15.40;99.90
34279;DHT22;20538;51.528;9.942;2023-04-09T14:49:50;15.20;99.90
34279;DHT22;20538;51.528;9.942;2023-04-09T14:52:17;15.40;99.90
34279;DHT22;20538;51.528;9.942;2023-04-09T14:54:44;15.50;99.90
34279;DHT22;20538;51.528;9.942;2023-04-09T14:57:13;15.30;99.90
34279;DHT22;20538;51.528;9.942;2023-04-09T14:59:39;15.20;99.90
34279;DHT22;20538;51.528;9.942;2023-04-09T15:02:06;15.30;99.90
34279;DHT22;20538;51.528;9.942;2023-04-09T15:04:31;15.30;99.90
34279;DHT22;20538;51.528;9.942;2023-04-09T15:06:57;15.40;99.90
34279;DHT22;20538;51.528;9.942;2023-04-09T15:09:23;15.40;99.90
34279;DHT22;20538;51.528;9.942;2023-04-09T15:11:49;15.40;99.90
34279;DHT22;20538;51.528;9.942;2023-04-09T15:14:14;15.50;99.90
34279;DHT22;20538;51.528;9.942;2023-04-09T15:16:40;15.70;99.90
34279;DHT22;20538;51.528;9.942;2023-04-09T15:19:06;15.90;99.90
34279;DHT22;20538;51.528;9.942;2023-04-09T15:21:32;15.80;99.90
34279;DHT22;20538;51.528;9.942;2023-04-09T15:23:57;15.90;99.90
34279;DHT22;20538;51.528;9.942;2023-04-09T15:26:24;16.00;99.90
34279;DHT22;20538;51.528;9.942;2023-04-09T15:28:50;16.00;99.90
34279;DHT22;20538;51.528;9.942;2023-04-09T15:31:18;15.90;99.90
34279;DHT22;20538;51.528;9.942;2023-04-09T15:33:43;15.80;99.90
34279;DHT22;20538;51.528;9.942;2023-04-09T15:36:10;16.00;99.90
34279;DHT22;20538;51.528;9.942;2023-04-09T15:38:36;15.90;99.90
34279;DHT22;20538;51.528;9.942;2023-04-09T15:41:02;15.60;99.90
34279;DHT22;20538;51.528;9.942;2023-04-09T15:43:29;15.50;99.90
34279;DHT22;20538;51.528;9.942;2023-04-09T15:45:54;15.20;99.90
34279;DHT22;20538;51.528;9.942;2023-04-09T15:48:20;15.10;99.90
34279;DHT22;20538;51.528;9.942;2023-04-09T15:50:45;15.00;99.90
34279;DHT22;20538;51.528;9.942;2023-04-09T15:53:13;15.00;99.90
34279;DHT22;20538;51.528;9.942;2023-04-09T15:55:39;14.80;99.90
34279;DHT22;20538;51.528;9.942;2023-04-09T15:58:05;14.60;99.90
34279;DHT22;20538;51.528;9.942;2023-04-09T16:00:31;14.60;99.90
34279;DHT22;20538;51.528;9.942;2023-04-09T16:02:57;14.80;99.90
34279;DHT22;20538;51.528;9.942;2023-04-09T16:05:23;14.80;99.90
34279;DHT22;20538;51.528;9.942;2023-04-09T16:07:49;15.00;99.90
34279;DHT22;20538;51.528;9.942;2023-04-09T16:10:16;14.50;99.30